PROFILE

 METAR AND TAF INFORMATION
ADDS - METARS form results

(0546 UTC 22 September 2019)
http://aviationweather.gov/metar/data/
 
ULLI 220530Z 32007MPS 9999 FEW015 05/02 Q1008 R88/190055 NOSIG
ULLI 220500Z 32005MPS 9999 FEW014 04/02 Q1008 R28R/290050 NOSIG
TAF ULLI 220456Z 2206/2306 33005G11MPS 9999 SCT015 TEMPO 2206/2215 35008G15MPS -SHRA SCT011 BKN020CB BECMG 2219/2221 32003MPS TEMPO 2221/2306 3100 BR SCT011 

 AIRPORT MAP

 RUNWAY INFORMATION
Runway 10L Runway length 11146 ft Runway width 197 ft
Runway elevation 59 ft Runway displaced threshold 0 ft Runway heading 106
Runway 28R Runway length 11146 ft Runway width 197 ft
Runway elevation 66 ft Runway displaced threshold 0 ft Runway heading 286
Runway 10R Runway length 12402 ft Runway width 197 ft
Runway elevation 66 ft Runway displaced threshold 0 ft Runway heading 106
Runway 28L Runway length 12402 ft Runway width 197 ft
Runway elevation 79 ft Runway displaced threshold 0 ft Runway heading 286

 AIRPORT FREQUENCIES
Type APP Name PETERBURG Frequency 129.8 MHZ
Type ATIS Name ATIS Frequency 127.3 MHZ
Type GND Name TAXIING Frequency 121.7 MHZ
Type RDR Name KRUG Frequency 120.3 MHZ
Type TWR Name TWR Frequency 118.1 MHZ

 AIRPORT NEAR NAVIGATION AIDS
Type NDB Name Pulkovo Frequency 342 KHZ
Type NDB Name Pulkovo Frequency 525 KHZ
Type NDB Name Pulkovo Frequency 277 KHZ
Type NDB Name Pulkovo Frequency 303 KHZ
Type VOR-DME Name Sankt-Peterburg Frequency 113400 KHZ